FVHA

Harare International Airport

Harare, Zimbabwe
METAR FVHA 181900Z 07010KT CAVOK 23/15 Q1019 NOSIG
Observed Flight Rules
Dec-18 @ 19:00 UTC (an hour ago) Visual Flight Rules
Wind Visibility Clouds
70° at 10 knots 10,000+ meters
  • Clear skies
Temperatures Readings
Current 23°C / 73°F
Dewpoint 15°C / 59°F
Humidity 61%
Altimeter 30.09" Hg
Pressure 1019 hPa
Elevation 1503
METAR FVHA 181900Z 07010KT CAVOK 23/15 Q1019 NOSIG
Observed Flight Rules
Dec-18 @ 19:00 UTC
(an hour ago)
VFR
Wind Visibility
70° at 10 knots 10,000+ meters
Clouds
  • Clear skies
Temperature Dewpoint
23°C / 73°F 15°C / 59°F
Humidity Altimeter Pressure
61% 30.09" Hg 1019 hPa